South Albemarle, North Carolina
Current Conditions -  °F | °C
As of 11:55 AM on Saturday 22 Nov 2014 (Local Time) from KVUJ Reporting Station
Clear Clear  
Wind Chill: 48°   Ceiling: Unl
Heat Index: 48°   Visibility: 10mi
Dew Point: 13°   Wind: 3mph
Humidity: 24%   Direction: 210°SSW
Pressure: 30.54"   Gusts: NA
Location:  35.3503°N, 80.2174°W
Report Text: KVUJ 221655Z AUTO 21003KT 10SM CLR 09/M10 A3054 RMK AO2 T00911104
Loading
Personal Weather Stations






























Interactive Weather Map New forecast layout! Learn more

10-Day Weather Forecast

Advertisements
Track Severe Weather on mobile